sensor_id;sensor_type;location;lat;lon;timestamp;pressure;altitude;pressure_sealevel;temperature;humidity
20983;BME280;10650;51.528;6.748;2023-04-19T00:01:06;102478.59;;;12.11;67.37
20983;BME280;10650;51.528;6.748;2023-04-19T00:03:34;102469.66;;;12.11;67.69
20983;BME280;10650;51.528;6.748;2023-04-19T00:06:02;102467.88;;;12.11;67.48
20983;BME280;10650;51.528;6.748;2023-04-19T00:08:31;102467.84;;;12.08;67.81
20983;BME280;10650;51.528;6.748;2023-04-19T00:10:59;102466.03;;;12.09;68.17
20983;BME280;10650;51.528;6.748;2023-04-19T00:13:27;102457.97;;;12.04;68.13
20983;BME280;10650;51.528;6.748;2023-04-19T00:15:55;102461.50;;;12.02;68.52
20983;BME280;10650;51.528;6.748;2023-04-19T00:18:22;102460.63;;;12.03;69.31
20983;BME280;10650;51.528;6.748;2023-04-19T00:20:50;102460.63;;;12.04;69.15
20983;BME280;10650;51.528;6.748;2023-04-19T00:23:18;102458.91;;;12.06;69.65
20983;BME280;10650;51.528;6.748;2023-04-19T00:25:47;102460.69;;;12.10;69.43
20983;BME280;10650;51.528;6.748;2023-04-19T00:28:15;102455.34;;;12.12;69.61
20983;BME280;10650;51.528;6.748;2023-04-19T00:30:43;102458.97;;;12.14;69.30
20983;BME280;10650;51.528;6.748;2023-04-19T00:33:11;102462.56;;;12.16;69.32
20983;BME280;10650;51.528;6.748;2023-04-19T00:35:39;102460.78;;;12.17;69.44
20983;BME280;10650;51.528;6.748;2023-04-19T00:38:07;102453.63;;;12.16;69.86
20983;BME280;10650;51.528;6.748;2023-04-19T00:40:35;102459.88;;;12.16;69.39
20983;BME280;10650;51.528;6.748;2023-04-19T00:43:04;102453.69;;;12.20;69.62
20983;BME280;10650;51.528;6.748;2023-04-19T00:45:33;102458.16;;;12.21;69.39
20983;BME280;10650;51.528;6.748;2023-04-19T00:48:01;102451.94;;;12.24;69.19
20983;BME280;10650;51.528;6.748;2023-04-19T00:50:29;102456.41;;;12.25;69.25
20983;BME280;10650;51.528;6.748;2023-04-19T00:52:57;102451.09;;;12.28;68.85
20983;BME280;10650;51.528;6.748;2023-04-19T00:55:25;102451.94;;;12.24;69.21
20983;BME280;10650;51.528;6.748;2023-04-19T00:57:53;102458.25;;;12.29;69.05
20983;BME280;10650;51.528;6.748;2023-04-19T01:00:22;102455.56;;;12.29;69.08
20983;BME280;10650;51.528;6.748;2023-04-19T01:02:50;102451.03;;;12.23;68.96
20983;BME280;10650;51.528;6.748;2023-04-19T01:05:18;102445.69;;;12.25;69.26
20983;BME280;10650;51.528;6.748;2023-04-19T01:07:46;102448.44;;;12.28;69.17
20983;BME280;10650;51.528;6.748;2023-04-19T01:10:14;102448.44;;;12.28;69.15
20983;BME280;10650;51.528;6.748;2023-04-19T01:12:41;102449.31;;;12.28;68.92
20983;BME280;10650;51.528;6.748;2023-04-19T01:15:09;102446.59;;;12.25;69.25
20983;BME280;10650;51.528;6.748;2023-04-19T01:17:39;102437.69;;;12.26;69.14
20983;BME280;10650;51.528;6.748;2023-04-19T01:20:07;102444.81;;;12.27;69.35
20983;BME280;10650;51.528;6.748;2023-04-19T01:22:37;102435.88;;;12.24;68.94
20983;BME280;10650;51.528;6.748;2023-04-19T01:25:06;102437.63;;;12.22;69.13
20983;BME280;10650;51.528;6.748;2023-04-19T01:27:35;102425.97;;;12.18;69.20
20983;BME280;10650;51.528;6.748;2023-04-19T01:30:03;102432.06;;;12.05;69.56
20983;BME280;10650;51.528;6.748;2023-04-19T01:32:31;102432.88;;;11.98;69.88
20983;BME280;10650;51.528;6.748;2023-04-19T01:34:59;102433.75;;;11.95;69.83
20983;BME280;10650;51.528;6.748;2023-04-19T01:37:27;102426.53;;;11.92;69.75
20983;BME280;10650;51.528;6.748;2023-04-19T01:39:56;102434.56;;;11.91;69.97
20983;BME280;10650;51.528;6.748;2023-04-19T01:42:24;102422.03;;;11.88;70.10
20983;BME280;10650;51.528;6.748;2023-04-19T01:44:52;102432.72;;;11.87;70.08
20983;BME280;10650;51.528;6.748;2023-04-19T01:47:20;102419.31;;;11.87;70.06
20983;BME280;10650;51.528;6.748;2023-04-19T01:49:48;102429.16;;;11.86;70.44
20983;BME280;10650;51.528;6.748;2023-04-19T01:52:16;102424.63;;;11.82;70.65
20983;BME280;10650;51.528;6.748;2023-04-19T01:54:44;102427.22;;;11.77;70.53
20983;BME280;10650;51.528;6.748;2023-04-19T01:57:13;102434.41;;;11.82;70.44
20983;BME280;10650;51.528;6.748;2023-04-19T01:59:41;102429.06;;;11.82;70.66
20983;BME280;10650;51.528;6.748;2023-04-19T02:02:09;102422.88;;;11.86;70.53
20983;BME280;10650;51.528;6.748;2023-04-19T02:04:37;102424.75;;;11.93;70.44
20983;BME280;10650;51.528;6.748;2023-04-19T02:07:05;102417.69;;;11.97;70.18
20983;BME280;10650;51.528;6.748;2023-04-19T02:09:34;102426.59;;;11.94;70.01
20983;BME280;10650;51.528;6.748;2023-04-19T02:12:03;102416.78;;;11.96;70.27
20983;BME280;10650;51.528;6.748;2023-04-19T02:14:32;102415.00;;;11.95;70.52
20983;BME280;10650;51.528;6.748;2023-04-19T02:17:00;102412.34;;;11.98;70.22
20983;BME280;10650;51.528;6.748;2023-04-19T02:19:28;102414.09;;;11.94;70.08
20983;BME280;10650;51.528;6.748;2023-04-19T02:21:55;102415.91;;;11.97;70.28
20983;BME280;10650;51.528;6.748;2023-04-19T02:24:23;102415.03;;;11.97;70.40
20983;BME280;10650;51.528;6.748;2023-04-19T02:26:51;102413.22;;;11.96;70.56
20983;BME280;10650;51.528;6.748;2023-04-19T02:29:19;102421.25;;;11.96;70.44
20983;BME280;10650;51.528;6.748;2023-04-19T02:31:48;102411.41;;;11.94;70.13
20983;BME280;10650;51.528;6.748;2023-04-19T02:34:16;102408.75;;;11.96;70.13
20983;BME280;10650;51.528;6.748;2023-04-19T02:36:44;102407.00;;;11.98;69.79
20983;BME280;10650;51.528;6.748;2023-04-19T02:39:12;102407.03;;;12.01;69.50
20983;BME280;10650;51.528;6.748;2023-04-19T02:41:40;102418.59;;;11.97;69.31
20983;BME280;10650;51.528;6.748;2023-04-19T02:44:07;102407.88;;;11.97;69.60
20983;BME280;10650;51.528;6.748;2023-04-19T02:46:35;102420.25;;;11.92;69.47
20983;BME280;10650;51.528;6.748;2023-04-19T02:49:04;102407.75;;;11.89;69.47
20983;BME280;10650;51.528;6.748;2023-04-19T02:51:32;102408.63;;;11.88;69.27
20983;BME280;10650;51.528;6.748;2023-04-19T02:54:00;102410.34;;;11.85;69.67
20983;BME280;10650;51.528;6.748;2023-04-19T02:56:28;102405.91;;;11.84;69.53
20983;BME280;10650;51.528;6.748;2023-04-19T02:58:59;102414.78;;;11.80;69.83
20983;BME280;10650;51.528;6.748;2023-04-19T03:01:27;102412.97;;;11.80;69.57
20983;BME280;10650;51.528;6.748;2023-04-19T03:03:55;102418.44;;;11.86;69.48
20983;BME280;10650;51.528;6.748;2023-04-19T03:06:25;102407.66;;;11.83;69.20
20983;BME280;10650;51.528;6.748;2023-04-19T03:08:52;102408.47;;;11.77;69.35
20983;BME280;10650;51.528;6.748;2023-04-19T03:11:20;102408.47;;;11.77;69.62
20983;BME280;10650;51.528;6.748;2023-04-19T03:13:48;102400.53;;;11.84;69.22
20983;BME280;10650;51.528;6.748;2023-04-19T03:16:16;102408.59;;;11.85;69.58
20983;BME280;10650;51.528;6.748;2023-04-19T03:18:44;102397.78;;;11.77;69.30
20983;BME280;10650;51.528;6.748;2023-04-19T03:21:14;102408.44;;;11.74;69.12
20983;BME280;10650;51.528;6.748;2023-04-19T03:23:43;102398.66;;;11.75;68.95
20983;BME280;10650;51.528;6.748;2023-04-19T03:26:11;102400.38;;;11.71;69.17
20983;BME280;10650;51.528;6.748;2023-04-19T03:28:39;102405.78;;;11.76;68.62
20983;BME280;10650;51.528;6.748;2023-04-19T03:31:07;102402.25;;;11.78;68.72
20983;BME280;10650;51.528;6.748;2023-04-19T03:33:35;102389.72;;;11.76;68.52
20983;BME280;10650;51.528;6.748;2023-04-19T03:36:03;102394.19;;;11.75;68.03
20983;BME280;10650;51.528;6.748;2023-04-19T03:38:31;102401.34;;;11.76;68.12
20983;BME280;10650;51.528;6.748;2023-04-19T03:41:00;102396.88;;;11.75;67.79
20983;BME280;10650;51.528;6.748;2023-04-19T03:43:28;102396.84;;;11.74;67.74
20983;BME280;10650;51.528;6.748;2023-04-19T03:45:56;102387.84;;;11.67;67.27
20983;BME280;10650;51.528;6.748;2023-04-19T03:48:23;102388.69;;;11.66;67.30
20983;BME280;10650;51.528;6.748;2023-04-19T03:50:51;102390.38;;;11.56;66.91
20983;BME280;10650;51.528;6.748;2023-04-19T03:53:19;102396.59;;;11.54;66.88
20983;BME280;10650;51.528;6.748;2023-04-19T03:55:47;102393.97;;;11.58;66.80
20983;BME280;10650;51.528;6.748;2023-04-19T03:58:16;102392.16;;;11.56;66.92
20983;BME280;10650;51.528;6.748;2023-04-19T04:00:44;102393.97;;;11.58;66.45
20983;BME280;10650;51.528;6.748;2023-04-19T04:03:12;102392.16;;;11.57;66.79
20983;BME280;10650;51.528;6.748;2023-04-19T04:05:40;102395.72;;;11.53;65.94
20983;BME280;10650;51.528;6.748;2023-04-19T04:08:08;102390.22;;;11.46;66.17
20983;BME280;10650;51.528;6.748;2023-04-19T04:10:36;102396.34;;;11.37;65.88
20983;BME280;10650;51.528;6.748;2023-04-19T04:13:04;102404.34;;;11.34;66.52
20983;BME280;10650;51.528;6.748;2023-04-19T04:15:33;102396.16;;;11.23;66.42
20983;BME280;10650;51.528;6.748;2023-04-19T04:18:01;102401.41;;;11.15;66.44
20983;BME280;10650;51.528;6.748;2023-04-19T04:20:28;102404.91;;;11.11;66.54
20983;BME280;10650;51.528;6.748;2023-04-19T04:22:57;102406.50;;;11.00;66.70
20983;BME280;10650;51.528;6.748;2023-04-19T04:25:25;102407.31;;;10.94;66.94
20983;BME280;10650;51.528;6.748;2023-04-19T04:27:54;102403.75;;;10.94;66.76
20983;BME280;10650;51.528;6.748;2023-04-19T04:30:22;102418.84;;;10.91;66.81
20983;BME280;10650;51.528;6.748;2023-04-19T04:32:54;102420.56;;;10.86;66.96
20983;BME280;10650;51.528;6.748;2023-04-19T04:35:23;102412.50;;;10.83;67.01
20983;BME280;10650;51.528;6.748;2023-04-19T04:37:51;102414.22;;;10.81;66.82
20983;BME280;10650;51.528;6.748;2023-04-19T04:40:20;102415.91;;;10.75;66.38
20983;BME280;10650;51.528;6.748;2023-04-19T04:42:48;102416.72;;;10.70;66.91
20983;BME280;10650;51.528;6.748;2023-04-19T04:45:18;102404.31;;;10.74;66.51
20983;BME280;10650;51.528;6.748;2023-04-19T04:47:46;102408.72;;;10.70;66.25
20983;BME280;10650;51.528;6.748;2023-04-19T04:50:15;102401.56;;;10.69;66.44
20983;BME280;10650;51.528;6.748;2023-04-19T04:52:43;102407.78;;;10.70;66.13
20983;BME280;10650;51.528;6.748;2023-04-19T04:55:11;102402.47;;;10.71;66.61
20983;BME280;10650;51.528;6.748;2023-04-19T04:57:39;102406.94;;;10.71;65.71
20983;BME280;10650;51.528;6.748;2023-04-19T05:00:08;102401.56;;;10.69;65.45
20983;BME280;10650;51.528;6.748;2023-04-19T05:02:37;102413.97;;;10.67;65.91
20983;BME280;10650;51.528;6.748;2023-04-19T05:05:06;102412.00;;;10.55;66.02
20983;BME280;10650;51.528;6.748;2023-04-19T05:07:38;102411.19;;;10.60;65.99
20983;BME280;10650;51.528;6.748;2023-04-19T05:10:07;102420.09;;;10.60;65.90
20983;BME280;10650;51.528;6.748;2023-04-19T05:12:35;102412.97;;;10.59;65.19
20983;BME280;10650;51.528;6.748;2023-04-19T05:15:04;102415.72;;;10.64;65.42
20983;BME280;10650;51.528;6.748;2023-04-19T05:17:32;102414.84;;;10.65;64.33
20983;BME280;10650;51.528;6.748;2023-04-19T05:20:00;102420.84;;;10.53;64.04
20983;BME280;10650;51.528;6.748;2023-04-19T05:22:29;102421.78;;;10.53;63.83
20983;BME280;10650;51.528;6.748;2023-04-19T05:24:58;102420.97;;;10.58;63.15
20983;BME280;10650;51.528;6.748;2023-04-19T05:27:27;102419.13;;;10.55;63.64
20983;BME280;10650;51.528;6.748;2023-04-19T05:29:55;102420.09;;;10.60;63.61
20983;BME280;10650;51.528;6.748;2023-04-19T05:32:22;102419.19;;;10.60;62.84
20983;BME280;10650;51.528;6.748;2023-04-19T05:34:50;102415.66;;;10.61;62.72
20983;BME280;10650;51.528;6.748;2023-04-19T05:37:18;102418.34;;;10.61;62.25
20983;BME280;10650;51.528;6.748;2023-04-19T05:39:46;102422.75;;;10.60;61.99
20983;BME280;10650;51.528;6.748;2023-04-19T05:42:15;102418.28;;;10.58;61.26
20983;BME280;10650;51.528;6.748;2023-04-19T05:44:43;102419.72;;;10.40;60.08
20983;BME280;10650;51.528;6.748;2023-04-19T05:47:11;102416.16;;;10.38;60.13
20983;BME280;10650;51.528;6.748;2023-04-19T05:49:39;102426.94;;;10.44;59.20
20983;BME280;10650;51.528;6.748;2023-04-19T05:52:08;102418.78;;;10.36;58.93
20983;BME280;10650;51.528;6.748;2023-04-19T05:54:37;102415.22;;;10.36;57.91
20983;BME280;10650;51.528;6.748;2023-04-19T05:57:05;102416.25;;;10.44;57.48
20983;BME280;10650;51.528;6.748;2023-04-19T05:59:34;102427.84;;;10.43;57.00
20983;BME280;10650;51.528;6.748;2023-04-19T06:02:05;102424.09;;;10.35;55.73
20983;BME280;10650;51.528;6.748;2023-04-19T06:04:33;102432.03;;;10.32;55.81
20983;BME280;10650;51.528;6.748;2023-04-19T06:07:01;102415.97;;;10.29;55.06
20983;BME280;10650;51.528;6.748;2023-04-19T06:09:33;102423.06;;;10.30;54.04
20983;BME280;10650;51.528;6.748;2023-04-19T06:12:01;102423.09;;;10.31;55.14
20983;BME280;10650;51.528;6.748;2023-04-19T06:14:29;102426.69;;;10.32;53.22
20983;BME280;10650;51.528;6.748;2023-04-19T06:16:58;102428.69;;;10.42;53.31
20983;BME280;10650;51.528;6.748;2023-04-19T06:19:26;102423.44;;;10.47;53.19
20983;BME280;10650;51.528;6.748;2023-04-19T06:21:54;102427.13;;;10.53;53.70
20983;BME280;10650;51.528;6.748;2023-04-19T06:24:22;102427.00;;;10.47;52.41
20983;BME280;10650;51.528;6.748;2023-04-19T06:26:49;102422.56;;;10.48;52.24
20983;BME280;10650;51.528;6.748;2023-04-19T06:29:17;102424.44;;;10.52;52.54
20983;BME280;10650;51.528;6.748;2023-04-19T06:31:47;102431.72;;;10.62;52.79
20983;BME280;10650;51.528;6.748;2023-04-19T06:34:16;102425.66;;;10.72;51.93
20983;BME280;10650;51.528;6.748;2023-04-19T06:36:44;102425.72;;;10.77;51.65
20983;BME280;10650;51.528;6.748;2023-04-19T06:39:13;102432.03;;;10.79;51.85
20983;BME280;10650;51.528;6.748;2023-04-19T06:41:42;102422.41;;;10.90;52.27
20983;BME280;10650;51.528;6.748;2023-04-19T06:44:10;102412.84;;;11.05;52.44
20983;BME280;10650;51.528;6.748;2023-04-19T06:46:38;102415.50;;;11.05;52.18
20983;BME280;10650;51.528;6.748;2023-04-19T06:49:06;102413.72;;;11.05;51.71
20983;BME280;10650;51.528;6.748;2023-04-19T06:51:37;102414.72;;;11.11;51.95
20983;BME280;10650;51.528;6.748;2023-04-19T06:54:05;102412.19;;;11.21;51.68
20983;BME280;10650;51.528;6.748;2023-04-19T06:56:40;102415.03;;;11.32;51.31
20983;BME280;10650;51.528;6.748;2023-04-19T06:59:11;102418.75;;;11.42;50.29
20983;BME280;10650;51.528;6.748;2023-04-19T07:01:39;102416.84;;;11.35;49.88
20983;BME280;10650;51.528;6.748;2023-04-19T07:04:07;102407.94;;;11.37;50.17
20983;BME280;10650;51.528;6.748;2023-04-19T07:06:38;102414.25;;;11.41;49.80
20983;BME280;10650;51.528;6.748;2023-04-19T07:09:06;102410.84;;;11.53;49.86
20983;BME280;10650;51.528;6.748;2023-04-19T07:11:34;102407.09;;;11.38;49.05
20983;BME280;10650;51.528;6.748;2023-04-19T07:14:02;102411.44;;;11.33;48.73
20983;BME280;10650;51.528;6.748;2023-04-19T07:16:31;102410.63;;;11.39;49.24
20983;BME280;10650;51.528;6.748;2023-04-19T07:18:59;102419.66;;;11.46;48.36
20983;BME280;10650;51.528;6.748;2023-04-19T07:21:27;102407.34;;;11.57;47.63
20983;BME280;10650;51.528;6.748;2023-04-19T07:24:00;102414.50;;;11.59;48.39
20983;BME280;10650;51.528;6.748;2023-04-19T07:26:28;102417.13;;;11.55;47.87
20983;BME280;10650;51.528;6.748;2023-04-19T07:29:02;102408.28;;;11.60;48.37
20983;BME280;10650;51.528;6.748;2023-04-19T07:31:30;102409.34;;;11.73;48.67
20983;BME280;10650;51.528;6.748;2023-04-19T07:33:58;102417.41;;;11.75;47.38
20983;BME280;10650;51.528;6.748;2023-04-19T07:36:26;102415.47;;;11.65;47.41
20983;BME280;10650;51.528;6.748;2023-04-19T07:38:53;102412.75;;;11.62;46.65
20983;BME280;10650;51.528;6.748;2023-04-19T07:41:23;102405.66;;;11.65;46.70
20983;BME280;10650;51.528;6.748;2023-04-19T07:43:51;102405.72;;;11.70;45.81
20983;BME280;10650;51.528;6.748;2023-04-19T07:46:19;102406.47;;;11.59;45.19
20983;BME280;10650;51.528;6.748;2023-04-19T07:48:46;102405.50;;;11.53;44.69
20983;BME280;10650;51.528;6.748;2023-04-19T07:51:15;102406.34;;;11.50;45.37
20983;BME280;10650;51.528;6.748;2023-04-19T07:53:46;102408.22;;;11.57;44.69
20983;BME280;10650;51.528;6.748;2023-04-19T07:56:14;102402.84;;;11.54;44.94
20983;BME280;10650;51.528;6.748;2023-04-19T07:58:43;102404.75;;;11.65;45.18
20983;BME280;10650;51.528;6.748;2023-04-19T08:01:22;102403.03;;;11.70;44.84
20983;BME280;10650;51.528;6.748;2023-04-19T08:03:50;102403.94;;;11.70;44.45
20983;BME280;10650;51.528;6.748;2023-04-19T08:06:18;102412.94;;;11.75;44.24
20983;BME280;10650;51.528;6.748;2023-04-19T08:08:47;102407.84;;;11.94;44.17
20983;BME280;10650;51.528;6.748;2023-04-19T08:11:15;102401.69;;;12.04;43.93
20983;BME280;10650;51.528;6.748;2023-04-19T08:13:44;102406.19;;;12.05;43.65
20983;BME280;10650;51.528;6.748;2023-04-19T08:16:32;102403.53;;;12.08;43.21
20983;BME280;10650;51.528;6.748;2023-04-19T08:19:20;102402.78;;;12.22;42.65
20983;BME280;10650;51.528;6.748;2023-04-19T08:21:48;102404.47;;;12.12;42.43
20983;BME280;10650;51.528;6.748;2023-04-19T08:24:16;102405.50;;;12.25;42.85
20983;BME280;10650;51.528;6.748;2023-04-19T08:26:44;102401.97;;;12.29;42.13
20983;BME280;10650;51.528;6.748;2023-04-19T08:29:20;102402.88;;;12.29;41.70
20983;BME280;10650;51.528;6.748;2023-04-19T08:31:48;102405.53;;;12.26;40.98
20983;BME280;10650;51.528;6.748;2023-04-19T08:34:17;102410.91;;;12.29;41.08
20983;BME280;10650;51.528;6.748;2023-04-19T08:36:45;102405.50;;;12.25;40.10
20983;BME280;10650;51.528;6.748;2023-04-19T08:39:28;102417.09;;;12.21;40.21
20983;BME280;10650;51.528;6.748;2023-04-19T08:42:03;102410.03;;;12.32;41.85
20983;BME280;10650;51.528;6.748;2023-04-19T08:44:45;102434.25;;;12.38;40.98
20983;BME280;10650;51.528;6.748;2023-04-19T08:47:16;102413.47;;;12.19;41.07
20983;BME280;10650;51.528;6.748;2023-04-19T08:49:59;102415.22;;;12.15;41.60
20983;BME280;10650;51.528;6.748;2023-04-19T08:52:32;102410.91;;;12.28;41.91
20983;BME280;10650;51.528;6.748;2023-04-19T08:55:07;102408.34;;;12.42;41.55
20983;BME280;10650;51.528;6.748;2023-04-19T08:57:36;102413.84;;;12.54;41.01
20983;BME280;10650;51.528;6.748;2023-04-19T09:00:06;102407.47;;;12.44;40.73
20983;BME280;10650;51.528;6.748;2023-04-19T09:02:44;102403.78;;;12.30;41.15
20983;BME280;10650;51.528;6.748;2023-04-19T09:05:14;102401.16;;;12.38;41.58
20983;BME280;10650;51.528;6.748;2023-04-19T09:07:44;102396.88;;;12.55;42.20
20983;BME280;10650;51.528;6.748;2023-04-19T09:10:15;102404.19;;;12.75;40.76
20983;BME280;10650;51.528;6.748;2023-04-19T09:12:59;102398.75;;;12.67;39.54
20983;BME280;10650;51.528;6.748;2023-04-19T09:15:36;102415.69;;;12.60;39.87
20983;BME280;10650;51.528;6.748;2023-04-19T09:18:06;102407.50;;;12.48;39.62
20983;BME280;10650;51.528;6.748;2023-04-19T09:20:36;102400.28;;;12.39;39.90
20983;BME280;10650;51.528;6.748;2023-04-19T09:23:06;102396.59;;;12.27;39.35
20983;BME280;10650;51.528;6.748;2023-04-19T09:25:34;102390.56;;;12.49;39.94
20983;BME280;10650;51.528;6.748;2023-04-19T09:28:22;102382.69;;;12.72;40.12
20983;BME280;10650;51.528;6.748;2023-04-19T09:30:53;102389.91;;;12.80;38.77
20983;BME280;10650;51.528;6.748;2023-04-19T09:33:37;102398.81;;;12.75;37.88
20983;BME280;10650;51.528;6.748;2023-04-19T09:36:06;102394.34;;;12.72;38.03
20983;BME280;10650;51.528;6.748;2023-04-19T09:38:45;102394.44;;;12.85;38.34
20983;BME280;10650;51.528;6.748;2023-04-19T09:41:14;102390.03;;;12.93;38.30
20983;BME280;10650;51.528;6.748;2023-04-19T09:43:42;102385.56;;;12.96;38.45
20983;BME280;10650;51.528;6.748;2023-04-19T09:46:33;102388.44;;;13.20;38.41
20983;BME280;10650;51.528;6.748;2023-04-19T09:49:21;102388.59;;;13.41;37.57
20983;BME280;10650;51.528;6.748;2023-04-19T09:52:07;102381.44;;;13.49;37.02
20983;BME280;10650;51.528;6.748;2023-04-19T09:54:36;102384.13;;;13.49;36.42
20983;BME280;10650;51.528;6.748;2023-04-19T09:57:05;102380.53;;;13.41;35.91
20983;BME280;10650;51.528;6.748;2023-04-19T09:59:34;102382.31;;;13.41;36.48
20983;BME280;10650;51.528;6.748;2023-04-19T10:02:04;102369.66;;;13.24;35.53
20983;BME280;10650;51.528;6.748;2023-04-19T10:04:34;102388.38;;;13.16;36.20
20983;BME280;10650;51.528;6.748;2023-04-19T10:07:23;102377.53;;;12.96;35.75
20983;BME280;10650;51.528;6.748;2023-04-19T10:09:57;102387.38;;;12.97;35.61
20983;BME280;10650;51.528;6.748;2023-04-19T10:12:30;102388.38;;;13.15;35.13
20983;BME280;10650;51.528;6.748;2023-04-19T10:15:01;102382.16;;;13.22;35.43
20983;BME280;10650;51.528;6.748;2023-04-19T10:17:31;102373.22;;;13.20;35.59
20983;BME280;10650;51.528;6.748;2023-04-19T10:20:03;102387.53;;;13.19;35.77
20983;BME280;10650;51.528;6.748;2023-04-19T10:22:34;102375.88;;;13.17;35.75
20983;BME280;10650;51.528;6.748;2023-04-19T10:25:07;102365.19;;;13.28;35.99
20983;BME280;10650;51.528;6.748;2023-04-19T10:27:36;102358.16;;;13.41;35.77
20983;BME280;10650;51.528;6.748;2023-04-19T10:30:05;102352.84;;;13.50;36.05
20983;BME280;10650;51.528;6.748;2023-04-19T10:32:41;102367.13;;;13.46;35.21
20983;BME280;10650;51.528;6.748;2023-04-19T10:35:10;102359.97;;;13.49;35.08
20983;BME280;10650;51.528;6.748;2023-04-19T10:38:02;102362.66;;;13.48;33.99
20983;BME280;10650;51.528;6.748;2023-04-19T10:40:55;102361.78;;;13.54;35.07
20983;BME280;10650;51.528;6.748;2023-04-19T10:43:25;102360.03;;;13.66;35.51
20983;BME280;10650;51.528;6.748;2023-04-19T10:45:54;102346.66;;;13.73;34.70
20983;BME280;10650;51.528;6.748;2023-04-19T10:48:34;102349.28;;;13.57;35.07
20983;BME280;10650;51.528;6.748;2023-04-19T10:51:10;102342.13;;;13.61;34.92
20983;BME280;10650;51.528;6.748;2023-04-19T10:53:55;102343.91;;;13.60;34.80
20983;BME280;10650;51.528;6.748;2023-04-19T10:59:38;102336.75;;;13.64;32.95
20983;BME280;10650;51.528;6.748;2023-04-19T11:02:26;102328.69;;;13.56;32.61
20983;BME280;10650;51.528;6.748;2023-04-19T11:05:00;102328.66;;;13.50;32.66
20983;BME280;10650;51.528;6.748;2023-04-19T11:07:44;102320.41;;;13.14;32.20
20983;BME280;10650;51.528;6.748;2023-04-19T11:10:12;102321.34;;;13.20;32.67
20983;BME280;10650;51.528;6.748;2023-04-19T11:12:43;102319.56;;;13.26;32.72
20983;BME280;10650;51.528;6.748;2023-04-19T11:15:12;102321.47;;;13.41;32.63
20983;BME280;10650;51.528;6.748;2023-04-19T11:17:39;102323.31;;;13.58;33.17
20983;BME280;10650;51.528;6.748;2023-04-19T11:20:10;102318.00;;;13.73;32.78
20983;BME280;10650;51.528;6.748;2023-04-19T11:22:40;102311.75;;;13.77;32.81
20983;BME280;10650;51.528;6.748;2023-04-19T11:25:10;102312.69;;;13.86;32.54
20983;BME280;10650;51.528;6.748;2023-04-19T11:27:38;102304.63;;;14.02;32.40
20983;BME280;10650;51.528;6.748;2023-04-19T11:30:08;102292.97;;;13.82;30.77
20983;BME280;10650;51.528;6.748;2023-04-19T11:32:43;102301.91;;;13.75;30.83
20983;BME280;10650;51.528;6.748;2023-04-19T11:35:13;102295.63;;;13.73;30.59
20983;BME280;10650;51.528;6.748;2023-04-19T11:37:41;102284.91;;;13.85;30.99
20983;BME280;10650;51.528;6.748;2023-04-19T11:40:13;102267.00;;;13.98;30.99
20983;BME280;10650;51.528;6.748;2023-04-19T11:42:41;102277.78;;;14.18;31.10
20983;BME280;10650;51.528;6.748;2023-04-19T11:45:11;102278.69;;;14.23;29.39
20983;BME280;10650;51.528;6.748;2023-04-19T11:47:54;102273.28;;;14.32;30.70
20983;BME280;10650;51.528;6.748;2023-04-19T11:50:31;102285.84;;;14.33;29.41
20983;BME280;10650;51.528;6.748;2023-04-19T11:53:01;102275.09;;;14.21;29.36
20983;BME280;10650;51.528;6.748;2023-04-19T11:55:35;102266.13;;;14.17;29.88
20983;BME280;10650;51.528;6.748;2023-04-19T11:58:06;102258.06;;;14.28;30.28
20983;BME280;10650;51.528;6.748;2023-04-19T12:00:35;102265.25;;;14.43;30.18
20983;BME280;10650;51.528;6.748;2023-04-19T12:03:03;102258.06;;;14.54;30.54
20983;BME280;10650;51.528;6.748;2023-04-19T12:05:33;102257.16;;;14.60;30.40
20983;BME280;10650;51.528;6.748;2023-04-19T12:08:02;102241.94;;;14.62;29.74
20983;BME280;10650;51.528;6.748;2023-04-19T12:10:31;102242.78;;;14.58;29.94
20983;BME280;10650;51.528;6.748;2023-04-19T12:12:59;102240.13;;;14.72;30.61
20983;BME280;10650;51.528;6.748;2023-04-19T12:15:40;102232.00;;;14.81;30.42
20983;BME280;10650;51.528;6.748;2023-04-19T12:18:08;102229.31;;;14.89;31.34
20983;BME280;10650;51.528;6.748;2023-04-19T12:20:43;102232.94;;;14.71;30.46
20983;BME280;10650;51.528;6.748;2023-04-19T12:23:12;102251.78;;;14.57;30.12
20983;BME280;10650;51.528;6.748;2023-04-19T12:25:42;102231.19;;;14.33;30.09
20983;BME280;10650;51.528;6.748;2023-04-19T12:28:10;102236.53;;;14.30;29.90
20983;BME280;10650;51.528;6.748;2023-04-19T12:30:38;102209.69;;;14.27;30.18
20983;BME280;10650;51.528;6.748;2023-04-19T12:33:06;102214.16;;;14.42;30.02
20983;BME280;10650;51.528;6.748;2023-04-19T12:35:34;102215.91;;;14.58;29.71
20983;BME280;10650;51.528;6.748;2023-04-19T12:38:05;102214.16;;;14.62;30.08
20983;BME280;10650;51.528;6.748;2023-04-19T12:40:34;102210.50;;;14.81;30.85
20983;BME280;10650;51.528;6.748;2023-04-19T12:43:02;102212.25;;;14.87;30.58
20983;BME280;10650;51.528;6.748;2023-04-19T12:45:29;102216.78;;;14.80;29.89
20983;BME280;10650;51.528;6.748;2023-04-19T12:48:00;102206.97;;;14.70;29.15
20983;BME280;10650;51.528;6.748;2023-04-19T12:50:28;102211.44;;;14.68;29.16
20983;BME280;10650;51.528;6.748;2023-04-19T12:52:56;102222.19;;;14.66;28.86
20983;BME280;10650;51.528;6.748;2023-04-19T12:55:25;102187.22;;;14.73;29.73
20983;BME280;10650;51.528;6.748;2023-04-19T12:57:53;102203.31;;;14.85;29.92
20983;BME280;10650;51.528;6.748;2023-04-19T13:00:21;102192.50;;;14.94;30.39
20983;BME280;10650;51.528;6.748;2023-04-19T13:02:49;102183.47;;;15.14;30.39
20983;BME280;10650;51.528;6.748;2023-04-19T13:05:18;102185.19;;;15.24;30.18
20983;BME280;10650;51.528;6.748;2023-04-19T13:07:46;102183.34;;;15.32;30.62